createdAt,value
2017-12-22T00:01:26.554Z,28.30
2017-12-22T00:03:53.576Z,27.30
2017-12-22T00:06:19.856Z,27.93
2017-12-22T00:08:46.054Z,30.60
2017-12-22T00:11:13.328Z,29.07
2017-12-22T00:13:39.580Z,29.50
2017-12-22T00:16:05.863Z,28.80
2017-12-22T00:18:32.104Z,28.20
2017-12-22T00:20:58.408Z,26.57
2017-12-22T00:23:24.646Z,28.63
2017-12-22T00:25:50.885Z,29.13
2017-12-22T00:28:17.132Z,28.13
2017-12-22T00:30:43.339Z,31.17
2017-12-22T00:33:09.980Z,30.50
2017-12-22T00:35:36.168Z,29.23
2017-12-22T00:38:02.400Z,28.67
2017-12-22T00:40:28.657Z,27.60
2017-12-22T00:42:55.756Z,28.83
2017-12-22T00:45:21.981Z,29.60
2017-12-22T00:47:48.217Z,27.87
2017-12-22T00:50:15.316Z,26.00
2017-12-22T00:52:41.546Z,28.10
2017-12-22T00:55:07.763Z,30.33
2017-12-22T00:57:34.040Z,29.80
2017-12-22T01:00:00.243Z,29.00
2017-12-22T01:02:26.488Z,27.20
2017-12-22T01:04:53.504Z,30.43
2017-12-22T01:07:20.801Z,30.90
2017-12-22T01:09:48.819Z,30.10
2017-12-22T01:12:14.984Z,29.43
2017-12-22T01:14:41.194Z,29.33
2017-12-22T01:17:14.354Z,31.77
2017-12-22T01:19:40.623Z,27.97
2017-12-22T01:22:08.961Z,30.90
2017-12-22T01:24:37.037Z,33.10
2017-12-22T01:27:03.243Z,29.37
2017-12-22T01:29:29.523Z,28.00
2017-12-22T01:31:55.720Z,31.20
2017-12-22T01:34:22.792Z,28.33
2017-12-22T01:36:49.087Z,27.90
2017-12-22T01:39:15.402Z,30.37
2017-12-22T01:41:41.613Z,30.97
2017-12-22T01:44:07.822Z,30.70
2017-12-22T01:46:34.903Z,31.30
2017-12-22T01:49:01.221Z,28.37
2017-12-22T01:51:27.517Z,27.57
2017-12-22T01:53:54.737Z,29.13
2017-12-22T01:56:21.096Z,29.23
2017-12-22T01:58:47.308Z,27.50
2017-12-22T02:01:13.603Z,26.80
2017-12-22T02:03:40.276Z,28.77
2017-12-22T02:06:07.245Z,30.07
2017-12-22T02:08:33.484Z,28.60
2017-12-22T02:10:59.783Z,28.60
2017-12-22T02:13:26.087Z,28.70
2017-12-22T02:15:52.297Z,26.80
2017-12-22T02:18:18.732Z,27.73
2017-12-22T02:20:45.168Z,28.07
2017-12-22T02:23:11.385Z,27.67
2017-12-22T02:25:37.641Z,28.87
2017-12-22T02:28:04.700Z,28.07
2017-12-22T02:30:30.877Z,29.83
2017-12-22T02:32:57.847Z,27.73
2017-12-22T02:35:24.032Z,26.47
2017-12-22T02:37:51.157Z,27.63
2017-12-22T02:40:18.092Z,27.97
2017-12-22T02:42:44.292Z,27.30
2017-12-22T02:45:10.494Z,29.40
2017-12-22T02:47:36.720Z,27.63
2017-12-22T02:50:02.952Z,28.20
2017-12-22T02:52:30.062Z,30.47
2017-12-22T02:54:56.487Z,28.87
2017-12-22T02:57:22.728Z,31.20
2017-12-22T02:59:49.001Z,31.53
2017-12-22T03:02:15.976Z,27.67
2017-12-22T03:04:42.268Z,27.30
2017-12-22T03:07:08.510Z,27.77
2017-12-22T03:09:34.801Z,28.53
2017-12-22T03:12:01.225Z,29.40
2017-12-22T03:14:29.380Z,26.90
2017-12-22T03:16:55.673Z,25.50
2017-12-22T03:19:21.929Z,25.67
2017-12-22T03:21:48.233Z,24.40
2017-12-22T03:24:14.482Z,24.40
2017-12-22T03:26:40.789Z,24.47
2017-12-22T03:29:07.063Z,25.93
2017-12-22T03:31:33.257Z,23.00
2017-12-22T03:33:59.614Z,25.80
2017-12-22T03:36:25.969Z,26.47
2017-12-22T03:38:52.241Z,25.50
2017-12-22T03:41:18.488Z,24.40
2017-12-22T03:43:44.760Z,26.70
2017-12-22T03:46:11.837Z,26.37
2017-12-22T03:48:38.028Z,25.33
2017-12-22T03:51:04.329Z,25.47
2017-12-22T03:53:30.727Z,25.17
2017-12-22T03:55:57.760Z,24.37
2017-12-22T03:58:24.030Z,27.23
2017-12-22T04:00:50.312Z,24.57
2017-12-22T04:03:16.560Z,23.70
2017-12-22T04:05:42.800Z,20.87
2017-12-22T04:08:09.034Z,22.37
2017-12-22T04:10:35.402Z,23.80
2017-12-22T04:13:01.698Z,21.87
2017-12-22T04:15:28.115Z,20.17
2017-12-22T04:17:54.491Z,20.93
2017-12-22T04:20:20.718Z,21.20
2017-12-22T04:22:46.990Z,17.47
2017-12-22T04:25:13.318Z,18.63
2017-12-22T04:27:39.588Z,17.37
2017-12-22T04:30:05.878Z,18.13
2017-12-22T04:32:32.133Z,17.60
2017-12-22T04:34:58.494Z,17.93
2017-12-22T04:37:25.482Z,18.07
2017-12-22T04:39:51.685Z,19.27
2017-12-22T04:42:18.024Z,16.30
2017-12-22T04:44:44.209Z,17.37
2017-12-22T04:47:10.415Z,16.60
2017-12-22T04:49:36.765Z,16.90
2017-12-22T04:52:02.997Z,17.17
2017-12-22T04:54:29.325Z,15.57
2017-12-22T04:56:56.337Z,15.77
2017-12-22T04:59:22.677Z,15.67
2017-12-22T05:01:48.873Z,14.47
2017-12-22T05:04:15.084Z,14.80
2017-12-22T05:06:41.402Z,14.93
2017-12-22T05:09:07.676Z,15.00
2017-12-22T05:11:33.857Z,16.60
2017-12-22T05:14:00.122Z,15.20
2017-12-22T05:16:26.295Z,14.60
2017-12-22T05:18:52.508Z,13.67
2017-12-22T05:21:18.748Z,13.80
2017-12-22T05:23:45.716Z,12.60
2017-12-22T05:26:11.939Z,12.80
2017-12-22T05:28:38.884Z,12.73
2017-12-22T05:31:05.991Z,12.00
2017-12-22T05:33:32.297Z,11.90
2017-12-22T05:35:58.512Z,11.93
2017-12-22T05:38:24.699Z,10.30
2017-12-22T05:40:50.867Z,11.30
2017-12-22T05:43:17.061Z,9.90
2017-12-22T05:45:43.272Z,9.87
2017-12-22T05:48:09.540Z,10.33
2017-12-22T05:50:35.743Z,10.73
2017-12-22T05:53:08.952Z,9.33
2017-12-22T05:55:35.165Z,9.97
2017-12-22T05:58:01.350Z,9.30
2017-12-22T06:00:27.624Z,8.20
2017-12-22T06:02:53.975Z,7.93
2017-12-22T06:05:20.166Z,7.47
2017-12-22T06:07:47.137Z,7.50
2017-12-22T06:10:14.332Z,6.40
2017-12-22T06:12:41.489Z,7.13
2017-12-22T06:15:07.706Z,6.20
2017-12-22T06:17:33.981Z,6.23
2017-12-22T06:20:00.366Z,5.70
2017-12-22T06:22:26.693Z,6.50
2017-12-22T06:24:54.960Z,6.00
2017-12-22T06:27:22.308Z,7.43
2017-12-22T06:29:48.496Z,6.60
2017-12-22T06:32:14.905Z,5.63
2017-12-22T06:34:41.180Z,6.60
2017-12-22T06:37:07.445Z,5.27
2017-12-22T06:39:33.656Z,5.60
2017-12-22T06:41:59.918Z,5.80
2017-12-22T06:44:26.131Z,5.77
2017-12-22T06:46:53.146Z,5.17
2017-12-22T06:49:21.328Z,4.67
2017-12-22T06:51:48.388Z,6.90
2017-12-22T06:54:14.644Z,4.80
2017-12-22T06:56:40.929Z,5.07
2017-12-22T06:59:07.229Z,5.20
2017-12-22T07:01:33.476Z,5.00
2017-12-22T07:03:59.691Z,5.37
2017-12-22T07:06:26.700Z,5.20
2017-12-22T07:08:52.920Z,5.07
2017-12-22T07:11:19.092Z,5.23
2017-12-22T07:16:18.386Z,5.80
2017-12-22T07:18:44.639Z,5.13
2017-12-22T07:21:10.879Z,5.00
2017-12-22T07:23:37.872Z,4.87
2017-12-22T07:26:04.030Z,4.50
2017-12-22T07:28:30.448Z,5.17
2017-12-22T07:30:56.777Z,5.13
2017-12-22T07:33:23.697Z,5.77
2017-12-22T07:35:50.630Z,5.40
2017-12-22T07:38:17.564Z,5.50
2017-12-22T07:40:45.140Z,5.10
2017-12-22T07:43:11.308Z,4.97
2017-12-22T07:45:37.545Z,5.20
2017-12-22T07:48:03.787Z,5.27
2017-12-22T07:50:30.129Z,6.00
2017-12-22T07:52:56.303Z,7.10
2017-12-22T07:55:22.496Z,6.03
2017-12-22T07:57:49.407Z,5.50
2017-12-22T08:00:15.616Z,5.97
2017-12-22T08:02:41.843Z,6.40
2017-12-22T08:05:08.024Z,6.80
2017-12-22T08:07:34.248Z,6.57
2017-12-22T08:10:00.442Z,7.07
2017-12-22T08:12:26.641Z,7.40
2017-12-22T08:14:52.967Z,7.63
2017-12-22T08:17:19.204Z,7.37
2017-12-22T08:19:45.496Z,9.30
2017-12-22T08:22:11.883Z,9.03
2017-12-22T08:24:38.243Z,9.83
2017-12-22T08:27:04.487Z,8.47
2017-12-22T08:29:30.819Z,9.50
2017-12-22T08:31:57.719Z,9.17
2017-12-22T08:34:23.915Z,9.70
2017-12-22T08:36:50.129Z,9.47
2017-12-22T08:39:16.352Z,11.60
2017-12-22T08:41:43.293Z,11.63
2017-12-22T08:44:10.381Z,11.90
2017-12-22T08:46:36.578Z,10.40
2017-12-22T08:49:02.841Z,11.30
2017-12-22T08:51:29.212Z,11.40
2017-12-22T08:53:55.427Z,11.30
2017-12-22T08:56:21.588Z,10.70
2017-12-22T08:58:47.776Z,10.80
2017-12-22T09:01:13.933Z,11.67
2017-12-22T09:03:40.888Z,11.80
2017-12-22T09:06:07.138Z,11.53
2017-12-22T09:08:33.466Z,11.90
2017-12-22T09:10:59.702Z,12.13
2017-12-22T09:13:26.625Z,13.03
2017-12-22T09:15:52.820Z,11.93
2017-12-22T09:18:19.010Z,12.00
2017-12-22T09:20:45.228Z,12.37
2017-12-22T09:23:11.427Z,13.50
2017-12-22T09:25:37.622Z,13.57
2017-12-22T09:28:03.818Z,16.20
2017-12-22T09:30:30.800Z,14.83
2017-12-22T09:32:57.020Z,15.60
2017-12-22T09:35:23.247Z,14.47
2017-12-22T09:37:49.449Z,15.03
2017-12-22T09:40:15.656Z,15.20
2017-12-22T09:42:41.866Z,15.67
2017-12-22T09:45:09.115Z,16.60
2017-12-22T09:47:37.409Z,14.90
2017-12-22T09:50:11.806Z,16.93
2017-12-22T09:52:38.012Z,15.33
2017-12-22T09:55:04.317Z,16.33
2017-12-22T09:57:30.594Z,16.57
2017-12-22T09:59:56.816Z,18.60
2017-12-22T10:02:23.190Z,17.23
2017-12-22T10:04:49.429Z,16.70
2017-12-22T10:07:15.668Z,17.00
2017-12-22T10:09:41.852Z,18.43
2017-12-22T10:12:08.105Z,17.30
2017-12-22T10:14:34.561Z,17.40
2017-12-22T10:17:00.776Z,16.60
2017-12-22T10:19:27.010Z,18.03
2017-12-22T10:21:53.321Z,19.00
2017-12-22T10:24:19.787Z,18.40
2017-12-22T10:26:46.089Z,17.50
2017-12-22T10:29:12.522Z,17.73
2017-12-22T10:31:38.693Z,18.57
2017-12-22T10:34:04.908Z,18.63
2017-12-22T10:36:31.236Z,20.57
2017-12-22T10:38:57.526Z,17.47
2017-12-22T10:41:23.758Z,17.70
2017-12-22T10:43:50.090Z,17.60
2017-12-22T10:46:16.264Z,17.83
2017-12-22T10:48:42.594Z,18.50
2017-12-22T10:51:08.800Z,16.93
2017-12-22T10:53:35.025Z,18.67
2017-12-22T10:56:01.371Z,18.77
2017-12-22T10:58:27.622Z,19.43
2017-12-22T11:00:53.852Z,16.83
2017-12-22T11:03:20.998Z,17.47
2017-12-22T11:05:47.198Z,18.70
2017-12-22T11:08:13.467Z,18.73
2017-12-22T11:10:39.689Z,18.87
2017-12-22T11:13:05.909Z,21.33
2017-12-22T11:15:32.120Z,15.83
2017-12-22T11:17:58.432Z,17.10
2017-12-22T11:20:24.625Z,15.90
2017-12-22T11:22:50.813Z,16.33
2017-12-22T11:25:17.004Z,16.00
2017-12-22T11:27:44.026Z,15.50
2017-12-22T11:30:11.097Z,16.67
2017-12-22T11:32:37.307Z,17.00
2017-12-22T11:35:03.509Z,17.20
2017-12-22T11:37:29.842Z,16.80
2017-12-22T11:39:56.020Z,16.90
2017-12-22T11:42:22.280Z,17.97
2017-12-22T11:44:48.510Z,17.83
2017-12-22T11:47:14.752Z,18.50
2017-12-22T11:49:40.933Z,18.60
2017-12-22T11:52:07.139Z,19.23
2017-12-22T11:54:33.408Z,18.00
2017-12-22T11:56:59.648Z,17.50
2017-12-22T11:59:25.836Z,17.07
2017-12-22T12:01:52.805Z,17.23
2017-12-22T12:04:19.113Z,18.37
2017-12-22T12:06:45.337Z,16.70
2017-12-22T12:09:11.571Z,15.17
2017-12-22T12:11:37.962Z,15.90
2017-12-22T12:14:04.221Z,16.73
2017-12-22T12:16:30.433Z,16.77
2017-12-22T12:18:57.697Z,15.60
2017-12-22T12:21:24.459Z,16.00
2017-12-22T12:23:50.702Z,17.17
2017-12-22T12:26:17.578Z,16.67
2017-12-22T12:28:43.956Z,15.50
2017-12-22T12:31:10.143Z,14.63
2017-12-22T12:33:36.386Z,16.37
2017-12-22T12:36:02.681Z,15.80
2017-12-22T12:38:29.102Z,17.03
2017-12-22T12:40:55.310Z,17.63
2017-12-22T12:43:21.573Z,17.40
2017-12-22T12:45:47.786Z,16.30
2017-12-22T12:48:13.956Z,14.70
2017-12-22T12:50:40.249Z,15.20
2017-12-22T12:53:06.514Z,15.40
2017-12-22T12:55:32.733Z,14.23
2017-12-22T12:57:58.956Z,15.97
2017-12-22T13:00:25.210Z,13.70
2017-12-22T13:02:51.426Z,14.73
2017-12-22T13:05:17.741Z,14.20
2017-12-22T13:07:44.683Z,13.23
2017-12-22T13:10:11.757Z,14.57
2017-12-22T13:12:38.726Z,14.57
2017-12-22T13:15:04.926Z,14.87
2017-12-22T13:17:31.132Z,12.40
2017-12-22T13:19:57.372Z,14.00
2017-12-22T13:22:23.610Z,14.10
2017-12-22T13:24:49.840Z,14.13
2017-12-22T13:27:16.164Z,14.30
2017-12-22T13:29:43.172Z,15.87
2017-12-22T13:32:10.550Z,14.60
2017-12-22T13:34:36.741Z,15.13
2017-12-22T13:37:03.688Z,14.90
2017-12-22T13:39:29.971Z,14.00
2017-12-22T13:41:56.406Z,12.97
2017-12-22T13:44:22.607Z,12.10
2017-12-22T13:46:48.814Z,12.10
2017-12-22T13:49:15.226Z,12.37
2017-12-22T13:51:41.441Z,12.07
2017-12-22T13:54:07.724Z,12.63
2017-12-22T13:56:34.418Z,12.10
2017-12-22T13:59:00.604Z,12.27
2017-12-22T14:01:26.790Z,12.17
2017-12-22T14:03:53.107Z,13.37
2017-12-22T14:06:19.356Z,11.10
2017-12-22T14:08:46.371Z,12.40
2017-12-22T14:11:12.602Z,13.70
2017-12-22T14:13:38.790Z,14.10
2017-12-22T14:16:04.968Z,13.13
2017-12-22T14:18:31.288Z,14.27
2017-12-22T14:20:57.453Z,14.50
2017-12-22T14:23:23.604Z,15.63
2017-12-22T14:25:49.874Z,15.17
2017-12-22T14:28:16.043Z,17.17
2017-12-22T14:30:42.287Z,18.70
2017-12-22T14:33:08.684Z,18.37
2017-12-22T14:35:34.905Z,19.10
2017-12-22T14:38:01.152Z,18.20
2017-12-22T14:40:28.137Z,18.90
2017-12-22T14:42:54.420Z,17.60
2017-12-22T14:45:20.640Z,16.00
2017-12-22T14:47:46.892Z,17.13
2017-12-22T14:50:13.243Z,18.03
2017-12-22T14:52:40.156Z,31.43
2017-12-22T14:55:06.392Z,29.17
2017-12-22T14:57:33.313Z,21.50
2017-12-22T14:59:59.528Z,34.20
2017-12-22T15:02:25.789Z,32.90
2017-12-22T15:04:52.018Z,25.87
2017-12-22T15:07:19.270Z,21.87
2017-12-22T15:09:45.529Z,23.30
2017-12-22T15:12:11.776Z,20.30
2017-12-22T15:14:38.222Z,19.50
2017-12-22T15:17:04.452Z,19.43
2017-12-22T15:19:31.547Z,19.03
2017-12-22T15:21:57.828Z,19.63
2017-12-22T15:24:24.092Z,18.23
2017-12-22T15:26:50.280Z,16.57
2017-12-22T15:29:16.535Z,15.90
2017-12-22T15:31:43.577Z,14.67
2017-12-22T15:34:10.511Z,15.30
2017-12-22T15:36:36.680Z,13.40
2017-12-22T15:39:03.025Z,14.33
2017-12-22T15:41:29.219Z,14.50
2017-12-22T15:43:55.442Z,14.60
2017-12-22T15:46:21.688Z,15.90
2017-12-22T15:48:48.929Z,14.27
2017-12-22T15:51:16.210Z,16.70
2017-12-22T15:53:43.478Z,15.57
2017-12-22T15:56:12.596Z,14.37
2017-12-22T15:58:39.924Z,13.27
2017-12-22T16:01:06.128Z,12.00
2017-12-22T16:03:33.232Z,12.93
2017-12-22T16:05:59.454Z,14.23
2017-12-22T16:08:25.700Z,13.07
2017-12-22T16:10:52.125Z,18.60
2017-12-22T16:13:18.277Z,18.37
2017-12-22T16:15:44.489Z,18.40
2017-12-22T16:18:13.637Z,14.53
2017-12-22T16:20:39.834Z,16.50
2017-12-22T16:23:06.002Z,16.33
2017-12-22T16:25:32.211Z,16.30
2017-12-22T16:27:58.482Z,15.03
2017-12-22T16:30:25.577Z,15.20
2017-12-22T16:32:51.762Z,16.27
2017-12-22T16:35:33.457Z,15.13
2017-12-22T16:37:59.621Z,15.70
2017-12-22T16:40:25.780Z,18.10
2017-12-22T16:42:51.979Z,16.03
2017-12-22T16:45:18.178Z,17.07
2017-12-22T16:47:44.490Z,16.30
2017-12-22T16:50:11.524Z,15.00
2017-12-22T16:52:38.283Z,15.33
2017-12-22T16:55:04.649Z,14.30
2017-12-22T16:57:30.865Z,13.90
2017-12-22T16:59:57.032Z,14.27
2017-12-22T17:02:23.410Z,15.87
2017-12-22T17:04:49.578Z,16.37
2017-12-22T17:07:16.565Z,14.83
2017-12-22T17:09:42.746Z,14.90
2017-12-22T17:12:08.993Z,14.40
2017-12-22T17:14:40.524Z,16.40
2017-12-22T17:17:07.052Z,15.27
2017-12-22T17:19:33.293Z,18.40
2017-12-22T17:21:59.472Z,20.57
2017-12-22T17:24:25.759Z,17.03
2017-12-22T17:26:51.919Z,13.93
2017-12-22T17:29:18.118Z,14.50
2017-12-22T17:31:44.440Z,16.20
2017-12-22T17:34:11.242Z,14.90
2017-12-22T17:36:37.428Z,16.80
2017-12-22T17:39:03.836Z,16.43
2017-12-22T17:41:30.912Z,16.00
2017-12-22T17:43:57.100Z,15.60
2017-12-22T17:46:23.334Z,17.00
2017-12-22T17:48:49.820Z,16.07
2017-12-22T17:51:16.757Z,14.33
2017-12-22T17:53:43.002Z,14.73
2017-12-22T17:56:09.404Z,15.67
2017-12-22T17:58:35.571Z,13.47
2017-12-22T18:01:01.769Z,14.27
2017-12-22T18:03:28.177Z,15.90
2017-12-22T18:05:54.404Z,17.40
2017-12-22T18:08:20.715Z,33.13
2017-12-22T18:10:47.014Z,16.60
2017-12-22T18:13:13.284Z,91.80
2017-12-22T18:15:39.501Z,18.63
2017-12-22T18:18:06.413Z,17.07
2017-12-22T18:20:33.392Z,16.60
2017-12-22T18:22:59.588Z,15.80
2017-12-22T18:25:25.741Z,17.30
2017-12-22T18:27:52.029Z,16.00
2017-12-22T18:30:18.203Z,20.20
2017-12-22T18:32:44.760Z,16.53
2017-12-22T18:35:11.182Z,21.93
2017-12-22T18:37:37.374Z,22.83
2017-12-22T18:40:03.536Z,17.10
2017-12-22T18:42:30.370Z,17.20
2017-12-22T18:44:56.637Z,29.57
2017-12-22T18:47:22.926Z,18.57
2017-12-22T18:49:49.836Z,18.23
2017-12-22T18:52:16.216Z,18.47
2017-12-22T18:54:42.368Z,18.50
2017-12-22T18:57:08.538Z,18.50
2017-12-22T18:59:34.945Z,17.17
2017-12-22T19:02:01.860Z,16.90
2017-12-22T19:04:28.039Z,17.10
2017-12-22T19:06:54.626Z,18.50
2017-12-22T19:09:21.045Z,16.53
2017-12-22T19:11:47.418Z,17.40
2017-12-22T19:14:13.645Z,18.50
2017-12-22T19:16:40.151Z,19.80
2017-12-22T19:19:07.088Z,18.40
2017-12-22T19:21:33.391Z,19.80
2017-12-22T19:23:59.896Z,20.37
2017-12-22T19:26:26.227Z,18.97
2017-12-22T19:28:52.509Z,19.73
2017-12-22T19:31:18.782Z,20.57
2017-12-22T19:33:45.216Z,19.63
2017-12-22T19:36:11.584Z,20.63
2017-12-22T19:38:37.792Z,19.40
2017-12-22T19:41:04.183Z,20.80
2017-12-22T19:43:30.374Z,23.10
2017-12-22T19:45:56.594Z,22.30
2017-12-22T19:48:22.844Z,18.83
2017-12-22T19:50:49.064Z,19.10
2017-12-22T19:53:15.268Z,24.37
2017-12-22T19:55:41.736Z,20.40
2017-12-22T19:58:07.945Z,22.53
2017-12-22T20:00:34.210Z,19.53
2017-12-22T20:03:00.533Z,20.13
2017-12-22T20:05:26.858Z,19.77
2017-12-22T20:07:53.102Z,19.57
2017-12-22T20:10:19.527Z,19.60
2017-12-22T20:12:45.769Z,20.83
2017-12-22T20:15:12.072Z,17.83
2017-12-22T20:17:38.435Z,19.10
2017-12-22T20:20:04.655Z,24.20
2017-12-22T20:22:31.641Z,20.57
2017-12-22T20:24:57.881Z,20.57
2017-12-22T20:27:24.824Z,19.37
2017-12-22T20:29:51.784Z,20.33
2017-12-22T20:32:18.026Z,23.03
2017-12-22T20:34:44.420Z,20.07
2017-12-22T20:37:10.677Z,20.37
2017-12-22T20:39:36.870Z,19.93
2017-12-22T20:42:03.300Z,20.10
2017-12-22T20:44:31.274Z,22.47
2017-12-22T20:46:57.495Z,22.20
2017-12-22T20:49:23.693Z,22.30
2017-12-22T20:51:50.141Z,21.47
2017-12-22T20:54:17.291Z,20.70
2017-12-22T20:56:43.531Z,19.53
2017-12-22T20:59:09.769Z,19.50
2017-12-22T21:01:36.261Z,23.30
2017-12-22T21:04:02.508Z,21.23
2017-12-22T21:06:28.715Z,19.30
2017-12-22T21:08:55.268Z,19.67
2017-12-22T21:11:21.657Z,19.47
2017-12-22T21:13:47.870Z,29.50
2017-12-22T21:16:14.217Z,27.17
2017-12-22T21:18:41.183Z,21.53
2017-12-22T21:21:07.504Z,21.27
2017-12-22T21:23:33.744Z,19.57
2017-12-22T21:25:59.966Z,22.07
2017-12-22T21:28:26.980Z,18.10
2017-12-22T21:30:53.351Z,18.40
2017-12-22T21:33:19.727Z,19.77
2017-12-22T21:35:45.968Z,20.77
2017-12-22T21:38:12.214Z,19.50
2017-12-22T21:40:39.177Z,20.53
2017-12-22T21:43:05.438Z,19.20
2017-12-22T21:45:31.641Z,21.00
2017-12-22T21:47:58.134Z,20.20
2017-12-22T21:50:24.352Z,19.90
2017-12-22T21:52:50.661Z,18.27
2017-12-22T21:55:16.965Z,18.97
2017-12-22T21:57:43.250Z,20.47
2017-12-22T22:00:09.491Z,18.10
2017-12-22T22:02:35.741Z,18.10
2017-12-22T22:05:02.118Z,19.40
2017-12-22T22:07:28.391Z,20.00
2017-12-22T22:09:55.427Z,19.37
2017-12-22T22:12:21.895Z,18.27
2017-12-22T22:14:48.164Z,17.10
2017-12-22T22:17:14.403Z,17.33
2017-12-22T22:19:40.818Z,17.50
2017-12-22T22:22:07.091Z,16.50
2017-12-22T22:24:33.351Z,17.83
2017-12-22T22:27:00.705Z,17.70
2017-12-22T22:29:27.133Z,18.17
2017-12-22T22:31:53.396Z,16.00
2017-12-22T22:34:19.732Z,15.80
2017-12-22T22:36:46.326Z,16.40
2017-12-22T22:39:12.570Z,16.27
2017-12-22T22:41:38.858Z,16.40
2017-12-22T22:44:05.142Z,15.30
2017-12-22T22:46:31.408Z,15.60
2017-12-22T22:48:57.797Z,15.73
2017-12-22T22:51:24.808Z,16.83
2017-12-22T22:53:51.148Z,18.17
2017-12-22T22:56:17.405Z,20.47
2017-12-22T22:58:43.654Z,20.80
2017-12-22T23:01:10.090Z,20.00
2017-12-22T23:03:37.140Z,19.37
2017-12-22T23:06:03.349Z,19.80
2017-12-22T23:08:29.697Z,22.70
2017-12-22T23:10:56.759Z,21.10
2017-12-22T23:13:23.058Z,20.10
2017-12-22T23:15:49.312Z,19.97
2017-12-22T23:18:15.681Z,19.57
2017-12-22T23:20:41.965Z,19.80
2017-12-22T23:23:08.260Z,19.13
2017-12-22T23:25:34.730Z,18.83
2017-12-22T23:28:01.093Z,19.03
2017-12-22T23:30:28.075Z,18.07
2017-12-22T23:32:55.393Z,18.27
2017-12-22T23:35:21.730Z,17.80
2017-12-22T23:37:48.547Z,18.40
2017-12-22T23:40:14.989Z,17.87
2017-12-22T23:42:41.363Z,27.70
2017-12-22T23:45:09.766Z,49.43
2017-12-22T23:47:37.165Z,16.13
2017-12-22T23:50:04.189Z,15.20
2017-12-22T23:52:33.283Z,16.33
2017-12-22T23:54:59.571Z,15.50
2017-12-22T23:57:25.905Z,17.73
2017-12-22T23:59:52.159Z,17.03
